createdAt,value
2022-10-01T00:02:57.350Z,99899.66
2022-10-01T00:06:02.679Z,99900.75
2022-10-01T00:09:05.222Z,99894.19
2022-10-01T00:12:08.128Z,99899.75
2022-10-01T00:15:13.543Z,99899.38
2022-10-01T00:18:19.178Z,99896.03
2022-10-01T00:21:24.100Z,99865.25
2022-10-01T00:24:27.057Z,99862.75
2022-10-01T00:27:30.165Z,99889.03
2022-10-01T00:30:37.209Z,99960.44
2022-10-01T00:33:42.710Z,99989.91
2022-10-01T00:36:45.486Z,100000.22
2022-10-01T00:39:48.019Z,99945.75
2022-10-01T00:42:50.804Z,99859.94
2022-10-01T00:45:56.106Z,99861.13
2022-10-01T00:49:02.874Z,99883.34
2022-10-01T00:52:09.729Z,99889.28
2022-10-01T00:55:27.356Z,99895.94
2022-10-01T00:58:30.110Z,99893.94
2022-10-01T01:01:34.235Z,99883.69
2022-10-01T01:04:39.407Z,99887.37
2022-10-01T01:07:45.524Z,99882.50
2022-10-01T01:11:26.892Z,99892.63
2022-10-01T01:14:38.550Z,99887.47
2022-10-01T01:18:04.482Z,99903.34
2022-10-01T01:21:41.089Z,99903.78
2022-10-01T01:24:49.506Z,99895.50
2022-10-01T01:28:32.884Z,99888.94
2022-10-01T01:31:41.932Z,99893.47
2022-10-01T01:34:47.146Z,99887.28
2022-10-01T01:37:56.203Z,99883.59
2022-10-01T01:41:01.027Z,99903.97
2022-10-01T01:44:06.933Z,99924.47
2022-10-01T01:47:10.711Z,99931.84
2022-10-01T01:50:15.439Z,99921.06
2022-10-01T01:53:20.216Z,99904.47
2022-10-01T01:56:23.365Z,99910.59
2022-10-01T01:59:27.250Z,99910.81
2022-10-01T02:02:33.357Z,99914.19
2022-10-01T02:05:43.391Z,99910.50
2022-10-01T02:09:25.250Z,99895.09
2022-10-01T02:12:40.279Z,99888.75
2022-10-01T02:16:18.902Z,99895.59
2022-10-01T02:19:33.751Z,99893.09
2022-10-01T02:22:40.271Z,99869.88
2022-10-01T02:25:46.086Z,99860.62
2022-10-01T02:28:49.543Z,99859.31
2022-10-01T02:31:55.547Z,99870.84
2022-10-01T02:34:58.531Z,99877.69
2022-10-01T02:38:05.116Z,99885.06
2022-10-01T02:41:11.620Z,99894.09
2022-10-01T02:44:17.398Z,99906.47
2022-10-01T02:47:43.678Z,99894.91
2022-10-01T02:50:54.229Z,99889.94
2022-10-01T02:54:03.544Z,99885.41
2022-10-01T02:57:26.899Z,99893.34
2022-10-01T03:00:30.062Z,99888.28
2022-10-01T03:03:32.862Z,99888.81
2022-10-01T03:06:35.899Z,99890.12
2022-10-01T03:09:38.666Z,99902.28
2022-10-01T03:12:42.961Z,99892.44
2022-10-01T03:15:50.368Z,99902.94
2022-10-01T03:18:53.115Z,99901.78
2022-10-01T03:21:56.531Z,99912.66
2022-10-01T03:24:59.114Z,99896.59
2022-10-01T03:28:02.137Z,99892.09
2022-10-01T03:31:06.661Z,99897.25
2022-10-01T03:34:09.542Z,99887.91
2022-10-01T03:37:12.070Z,99880.00
2022-10-01T03:40:14.992Z,99895.69
2022-10-01T03:43:17.407Z,99893.00
2022-10-01T03:46:20.260Z,99896.69
2022-10-01T03:49:22.872Z,99907.78
2022-10-01T03:52:25.703Z,99962.19
2022-10-01T03:55:28.443Z,99930.09
2022-10-01T03:58:31.284Z,99938.03
2022-10-01T04:01:34.072Z,99942.16
2022-10-01T04:04:37.118Z,99935.44
2022-10-01T04:07:41.661Z,99931.94
2022-10-01T04:10:44.651Z,99920.41
2022-10-01T04:13:47.331Z,99913.22
2022-10-01T04:16:52.531Z,99897.16
2022-10-01T04:19:57.712Z,99882.41
2022-10-01T04:23:00.981Z,99893.84
2022-10-01T04:26:03.782Z,99896.31
2022-10-01T04:29:06.954Z,99880.56
2022-10-01T04:32:09.356Z,99878.53
2022-10-01T04:35:12.117Z,99878.78
2022-10-01T04:38:17.029Z,99877.13
2022-10-01T04:41:20.628Z,99877.97
2022-10-01T04:44:23.194Z,99875.56
2022-10-01T04:47:26.015Z,99880.09
2022-10-01T04:50:29.026Z,99879.44
2022-10-01T04:53:31.849Z,99881.09
2022-10-01T04:56:34.287Z,99883.41
2022-10-01T04:59:37.317Z,99883.78
2022-10-01T05:02:39.759Z,99879.63
2022-10-01T05:05:42.680Z,99888.75
2022-10-01T05:08:45.397Z,99881.09
2022-10-01T05:11:52.021Z,99889.41
2022-10-01T05:14:55.783Z,99889.56
2022-10-01T05:17:58.609Z,99892.06
2022-10-01T05:21:05.666Z,99899.06
2022-10-01T05:24:08.602Z,99913.94
2022-10-01T05:27:13.329Z,99937.84
2022-10-01T05:30:22.226Z,99941.38
2022-10-01T05:33:24.704Z,99961.00
2022-10-01T05:36:27.470Z,99968.00
2022-10-01T05:39:30.444Z,99964.88
2022-10-01T05:42:33.157Z,99951.66
2022-10-01T05:45:35.882Z,99941.72
2022-10-01T05:48:38.759Z,99933.31
2022-10-01T05:51:41.200Z,99932.22
2022-10-01T05:54:44.014Z,99923.63
2022-10-01T05:57:54.330Z,99927.97
2022-10-01T06:00:57.234Z,99917.06
2022-10-01T06:04:00.126Z,99902.22
2022-10-01T06:07:02.657Z,99896.97
2022-10-01T06:10:06.377Z,99883.59
2022-10-01T06:13:08.789Z,99889.56
2022-10-01T06:16:12.544Z,99902.78
2022-10-01T06:19:17.441Z,99906.91
2022-10-01T06:22:27.348Z,99901.87
2022-10-01T06:25:30.388Z,99892.00
2022-10-01T06:28:33.295Z,99881.38
2022-10-01T06:31:36.058Z,99890.69
2022-10-01T06:34:39.103Z,99866.41
2022-10-01T06:37:45.889Z,99863.81
2022-10-01T06:41:14.106Z,99868.22
2022-10-01T06:44:34.897Z,99898.09
2022-10-01T06:47:39.845Z,99890.19
2022-10-01T06:50:44.794Z,99894.78
2022-10-01T06:53:48.002Z,99898.09
2022-10-01T06:56:58.678Z,99894.66
2022-10-01T07:00:06.606Z,99886.06
2022-10-01T07:03:18.484Z,99890.00
2022-10-01T07:06:21.267Z,99892.16
2022-10-01T07:09:34.757Z,99892.44
2022-10-01T07:13:14.543Z,99900.09
2022-10-01T07:16:17.006Z,99905.88
2022-10-01T07:19:19.948Z,99908.00
2022-10-01T07:22:33.840Z,99896.88
2022-10-01T07:25:43.701Z,99899.63
2022-10-01T07:28:46.678Z,99894.91
2022-10-01T07:32:14.157Z,99898.22
2022-10-01T07:35:38.121Z,99889.16
2022-10-01T07:39:17.288Z,99878.87
2022-10-01T07:42:48.726Z,99870.72
2022-10-01T07:45:59.155Z,99871.50
2022-10-01T07:49:16.840Z,99859.97
2022-10-01T07:52:19.300Z,99864.59
2022-10-01T07:55:23.838Z,99849.78
2022-10-01T07:58:26.566Z,99858.50
2022-10-01T08:01:31.764Z,99852.72
2022-10-01T08:04:53.597Z,99873.22
2022-10-01T08:08:07.109Z,99869.25
2022-10-01T08:11:10.432Z,99863.13
2022-10-01T08:14:12.933Z,99868.50
2022-10-01T08:17:16.045Z,99863.78
2022-10-01T08:20:19.811Z,99860.69
2022-10-01T08:23:22.690Z,99866.28
2022-10-01T08:26:25.248Z,99859.31
2022-10-01T08:29:27.999Z,99863.69
2022-10-01T08:32:31.262Z,99860.81
2022-10-01T08:35:34.373Z,99865.41
2022-10-01T08:38:37.526Z,99868.25
2022-10-01T08:41:49.198Z,99873.00
2022-10-01T08:44:52.379Z,99858.44
2022-10-01T08:48:01.479Z,99845.66
2022-10-01T08:51:06.206Z,99848.53
2022-10-01T08:54:29.516Z,99834.50
2022-10-01T08:57:50.006Z,99822.34
2022-10-01T09:00:52.939Z,99825.44
2022-10-01T09:03:56.346Z,99816.53
2022-10-01T09:07:13.438Z,99819.25
2022-10-01T09:10:31.757Z,99826.69
2022-10-01T09:13:52.986Z,99821.56
2022-10-01T09:17:14.954Z,99811.03
2022-10-01T09:20:25.804Z,99820.56
2022-10-01T09:23:30.330Z,99807.56
2022-10-01T09:26:34.562Z,99812.72
2022-10-01T09:29:43.581Z,99816.28
2022-10-01T09:32:54.192Z,99814.62
2022-10-01T09:36:35.270Z,99809.91
2022-10-01T09:39:56.557Z,99813.22
2022-10-01T09:42:59.209Z,99817.34
2022-10-01T09:46:03.263Z,99812.00
2022-10-01T09:49:13.534Z,99809.56
2022-10-01T09:52:28.702Z,99806.25
2022-10-01T09:55:38.729Z,99799.22
2022-10-01T09:58:47.561Z,99804.47
2022-10-01T10:01:55.048Z,99790.38
2022-10-01T10:05:10.530Z,99794.72
2022-10-01T10:08:25.779Z,99789.56
2022-10-01T10:11:31.514Z,99794.31
2022-10-01T10:14:36.114Z,99783.94
2022-10-01T10:17:41.361Z,99778.53
2022-10-01T10:20:45.596Z,99778.91
2022-10-01T10:23:49.617Z,99768.53
2022-10-01T10:27:01.080Z,99767.91
2022-10-01T10:30:07.135Z,99762.75
2022-10-01T10:33:14.069Z,99757.97
2022-10-01T10:36:17.222Z,99753.81
2022-10-01T10:39:29.364Z,99757.94
2022-10-01T10:42:33.371Z,99751.25
2022-10-01T10:45:38.716Z,99751.81
2022-10-01T10:48:45.888Z,99745.16
2022-10-01T10:51:56.330Z,99738.97
2022-10-01T10:55:00.813Z,99740.56
2022-10-01T10:58:19.591Z,99735.38
2022-10-01T11:01:28.231Z,99723.19
2022-10-01T11:04:38.316Z,99716.31
2022-10-01T11:07:44.284Z,99717.53
2022-10-01T11:10:56.520Z,99721.94
2022-10-01T11:14:22.801Z,99711.53
2022-10-01T11:17:44.202Z,99708.00
2022-10-01T11:21:18.796Z,99699.22
2022-10-01T11:24:34.444Z,99692.03
2022-10-01T11:28:14.638Z,99692.62
2022-10-01T11:31:47.675Z,99680.09
2022-10-01T11:34:53.418Z,99675.16
2022-10-01T11:38:17.968Z,99656.78
2022-10-01T11:41:26.642Z,99645.94
2022-10-01T11:44:38.057Z,99653.41
2022-10-01T11:48:02.044Z,99649.72
2022-10-01T11:51:12.528Z,99646.28
2022-10-01T11:54:18.884Z,99647.88
2022-10-01T11:57:40.460Z,99644.94
2022-10-01T12:01:01.498Z,99639.84
2022-10-01T12:04:17.711Z,99631.34
2022-10-01T12:07:36.727Z,99626.63
2022-10-01T12:11:00.056Z,99627.50
2022-10-01T12:14:09.852Z,99614.38
2022-10-01T12:17:38.565Z,99612.59
2022-10-01T12:20:44.865Z,99598.16
2022-10-01T12:23:52.602Z,99607.81
2022-10-01T12:27:06.570Z,99606.97
2022-10-01T12:30:41.854Z,99604.06
2022-10-01T12:33:59.469Z,99597.78
2022-10-01T12:37:12.759Z,99591.34
2022-10-01T12:40:20.524Z,99600.25
2022-10-01T12:43:42.206Z,99590.19
2022-10-01T12:47:07.132Z,99602.72
2022-10-01T12:50:56.961Z,99603.34
2022-10-01T12:54:05.310Z,99600.34
2022-10-01T12:57:37.074Z,99603.28
2022-10-01T13:00:49.589Z,99596.53
2022-10-01T13:04:08.997Z,99581.41
2022-10-01T13:07:20.512Z,99570.53
2022-10-01T13:10:29.840Z,99571.88
2022-10-01T13:13:33.831Z,99571.72
2022-10-01T13:16:39.959Z,99557.09
2022-10-01T13:19:58.356Z,99535.25
2022-10-01T13:23:18.970Z,99520.69
2022-10-01T13:26:41.762Z,99542.34
2022-10-01T13:30:24.496Z,99535.69
2022-10-01T13:33:32.335Z,99542.97
2022-10-01T13:36:36.432Z,99534.03
2022-10-01T13:39:43.472Z,99528.69
2022-10-01T13:42:47.346Z,99529.50
2022-10-01T13:45:54.379Z,99524.94
2022-10-01T13:49:22.473Z,99516.34
2022-10-01T13:52:25.338Z,99510.63
2022-10-01T13:55:30.059Z,99496.03
2022-10-01T13:58:34.755Z,99497.72
2022-10-01T14:01:40.685Z,99502.88
2022-10-01T14:04:44.030Z,99487.88
2022-10-01T14:07:47.882Z,99474.59
2022-10-01T14:11:16.823Z,99478.56
2022-10-01T14:14:50.565Z,99486.88
2022-10-01T14:17:55.783Z,99481.22
2022-10-01T14:21:13.682Z,99491.16
2022-10-01T14:24:54.159Z,99494.28
2022-10-01T14:28:14.951Z,99482.09
2022-10-01T14:31:24.307Z,99487.47
2022-10-01T14:34:36.918Z,99489.06
2022-10-01T14:37:40.511Z,99499.69
2022-10-01T14:40:43.666Z,99484.91
2022-10-01T14:43:46.766Z,99488.44
2022-10-01T14:46:59.267Z,99480.75
2022-10-01T14:50:14.890Z,99479.03
2022-10-01T14:53:19.254Z,99483.81
2022-10-01T14:56:22.900Z,99469.97
2022-10-01T14:59:36.418Z,99460.50
2022-10-01T15:02:49.382Z,99462.06
2022-10-01T15:05:52.120Z,99465.81
2022-10-01T15:08:56.298Z,99460.81
2022-10-01T15:11:59.444Z,99454.59
2022-10-01T15:15:02.284Z,99451.84
2022-10-01T15:18:05.295Z,99447.38
2022-10-01T15:21:15.701Z,99462.56
2022-10-01T15:24:37.570Z,99464.94
2022-10-01T15:27:40.951Z,99469.94
2022-10-01T15:30:44.101Z,99478.84
2022-10-01T15:33:47.143Z,99479.09
2022-10-01T15:36:50.324Z,99497.34
2022-10-01T15:39:53.638Z,99494.88
2022-10-01T15:43:31.616Z,99501.81
2022-10-01T15:46:35.671Z,99493.78
2022-10-01T15:49:38.675Z,99498.37
2022-10-01T15:52:51.038Z,99498.37
2022-10-01T15:55:56.979Z,99500.44
2022-10-01T15:59:16.420Z,99495.12
2022-10-01T16:02:22.136Z,99493.06
2022-10-01T16:05:27.911Z,99499.69
2022-10-01T16:08:34.469Z,99493.84
2022-10-01T16:11:56.797Z,99501.72
2022-10-01T16:15:01.616Z,99502.31
2022-10-01T16:18:21.873Z,99503.56
2022-10-01T16:21:24.794Z,99506.63
2022-10-01T16:24:28.526Z,99509.50
2022-10-01T16:27:45.044Z,99506.03
2022-10-01T16:30:50.536Z,99516.34
2022-10-01T16:33:53.155Z,99504.19
2022-10-01T16:36:55.960Z,99517.34
2022-10-01T16:39:58.404Z,99512.41
2022-10-01T16:43:01.278Z,99508.72
2022-10-01T16:46:03.750Z,99518.78
2022-10-01T16:49:14.613Z,99520.41
2022-10-01T16:52:17.064Z,99521.84
2022-10-01T16:55:30.619Z,99517.53
2022-10-01T16:58:33.148Z,99524.34
2022-10-01T17:01:36.031Z,99524.94
2022-10-01T17:04:39.052Z,99522.41
2022-10-01T17:07:41.806Z,99518.06
2022-10-01T17:10:53.708Z,99518.88
2022-10-01T17:13:56.578Z,99515.56
2022-10-01T17:16:59.015Z,99515.38
2022-10-01T17:20:01.988Z,99519.72
2022-10-01T17:23:05.045Z,99520.97
2022-10-01T17:26:08.854Z,99515.28
2022-10-01T17:29:11.657Z,99518.69
2022-10-01T17:32:18.689Z,99515.97
2022-10-01T17:35:21.505Z,99512.66
2022-10-01T17:38:24.337Z,99514.31
2022-10-01T17:41:27.160Z,99511.72
2022-10-01T17:44:29.971Z,99520.06
2022-10-01T17:47:33.590Z,99523.84
2022-10-01T17:50:43.728Z,99521.75
2022-10-01T17:53:46.293Z,99523.75
2022-10-01T17:56:55.258Z,99524.16
2022-10-01T17:59:57.929Z,99529.34
2022-10-01T18:03:01.321Z,99530.91
2022-10-01T18:06:04.527Z,99538.31
2022-10-01T18:09:07.664Z,99535.87
2022-10-01T18:12:10.466Z,99534.59
2022-10-01T18:15:13.820Z,99533.12
2022-10-01T18:19:43.228Z,99527.53
2022-10-01T18:21:39.007Z,99524.22
2022-10-01T18:24:42.715Z,99521.00
2022-10-01T18:27:46.478Z,99525.78
2022-10-01T18:31:10.321Z,99538.16
2022-10-01T18:34:33.240Z,99558.25
2022-10-01T18:37:40.079Z,99556.50
2022-10-01T18:40:46.771Z,99564.72
2022-10-01T18:43:49.631Z,99563.25
2022-10-01T18:47:00.300Z,99570.00
2022-10-01T18:50:11.890Z,99573.38
2022-10-01T18:53:36.348Z,99585.81
2022-10-01T18:57:05.490Z,99589.19
2022-10-01T19:00:13.581Z,99593.84
2022-10-01T19:03:35.370Z,99590.41
2022-10-01T19:06:50.101Z,99593.06
2022-10-01T19:10:06.341Z,99601.09
2022-10-01T19:13:13.768Z,99601.72
2022-10-01T19:16:41.198Z,99594.28
2022-10-01T19:20:02.286Z,99601.97
2022-10-01T19:23:25.168Z,99594.16
2022-10-01T19:26:27.694Z,99598.28
2022-10-01T19:29:59.272Z,99609.81
2022-10-01T19:33:11.986Z,99611.66
2022-10-01T19:36:24.491Z,99615.34
2022-10-01T19:39:30.075Z,99605.88
2022-10-01T19:42:38.787Z,99605.22
2022-10-01T19:45:55.042Z,99616.50
2022-10-01T19:49:02.452Z,99617.34
2022-10-01T19:52:13.333Z,99604.91
2022-10-01T19:55:19.553Z,99610.13
2022-10-01T19:58:22.019Z,99622.16
2022-10-01T20:01:32.835Z,99613.03
2022-10-01T20:04:38.328Z,99627.63
2022-10-01T20:07:53.298Z,99632.88
2022-10-01T20:11:14.042Z,99634.06
2022-10-01T20:14:41.722Z,99631.75
2022-10-01T20:17:57.789Z,99640.53
2022-10-01T20:21:19.593Z,99643.09
2022-10-01T20:24:49.809Z,99652.50
2022-10-01T20:28:16.941Z,99639.69
2022-10-01T20:31:45.045Z,99650.47
2022-10-01T20:35:19.036Z,99644.69
2022-10-01T20:38:24.707Z,99637.03
2022-10-01T20:41:30.083Z,99644.88
2022-10-01T20:44:35.666Z,99650.09
2022-10-01T20:47:43.660Z,99654.72
2022-10-01T20:50:50.944Z,99661.78
2022-10-01T20:53:55.633Z,99660.50
2022-10-01T20:57:15.483Z,99655.59
2022-10-01T21:00:21.232Z,99667.06
2022-10-01T21:03:28.108Z,99687.44
2022-10-01T21:06:37.932Z,99694.00
2022-10-01T21:09:46.556Z,99700.25
2022-10-01T21:12:58.288Z,99705.72
2022-10-01T21:16:23.278Z,99715.09
2022-10-01T21:19:28.885Z,99720.56
2022-10-01T21:22:42.904Z,99715.47
2022-10-01T21:25:54.433Z,99705.53
2022-10-01T21:29:17.201Z,99711.13
2022-10-01T21:32:41.208Z,99717.63
2022-10-01T21:35:43.960Z,99713.25
2022-10-01T21:38:51.867Z,99711.91
2022-10-01T21:42:03.685Z,99718.72
2022-10-01T21:45:20.786Z,99722.66
2022-10-01T21:48:46.999Z,99737.69
2022-10-01T21:52:04.161Z,99737.81
2022-10-01T21:55:27.549Z,99740.47
2022-10-01T21:58:57.380Z,99727.19
2022-10-01T22:02:34.755Z,99722.59
2022-10-01T22:05:42.275Z,99721.94
2022-10-01T22:08:51.752Z,99717.16
2022-10-01T22:11:56.874Z,99718.53
2022-10-01T22:14:59.935Z,99725.44
2022-10-01T22:18:05.352Z,99716.06
2022-10-01T22:21:11.960Z,99713.38
2022-10-01T22:24:21.448Z,99714.13
2022-10-01T22:27:26.399Z,99711.72
2022-10-01T22:30:33.811Z,99717.03
2022-10-01T22:33:44.113Z,99714.91
2022-10-01T22:36:54.541Z,99730.75
2022-10-01T22:40:07.384Z,99709.13
2022-10-01T22:43:12.245Z,99728.56
2022-10-01T22:46:23.790Z,99721.53
2022-10-01T22:50:01.948Z,99729.38
2022-10-01T22:53:41.662Z,99730.91
2022-10-01T22:57:06.489Z,99735.72
2022-10-01T23:00:12.969Z,99734.28
2022-10-01T23:03:21.175Z,99751.47
2022-10-01T23:06:36.053Z,99743.91
2022-10-01T23:09:46.565Z,99762.09
2022-10-01T23:13:10.956Z,99755.06
2022-10-01T23:16:26.932Z,99756.00
2022-10-01T23:19:52.360Z,99762.69
2022-10-01T23:23:17.005Z,99764.53
2022-10-01T23:26:22.283Z,99761.16
2022-10-01T23:29:39.475Z,99757.31
2022-10-01T23:33:13.125Z,99761.31
2022-10-01T23:36:28.517Z,99759.28
2022-10-01T23:39:52.625Z,99750.56
2022-10-01T23:43:17.399Z,99764.09
2022-10-01T23:46:46.813Z,99760.72
2022-10-01T23:49:57.578Z,99766.16
2022-10-01T23:53:08.030Z,99764.81
2022-10-01T23:56:38.033Z,99777.66
2022-10-01T23:59:44.884Z,99784.06
